KLCK/LCK METAR and TAF weather

Enter ICAO airport designator
Station Type Date Time Source
KLCK METAR 2019/08/22 07:00 UTC NOAA

KLCK 220700Z 00000KT 10SM CLR 20/19 A2994


Station Type Date Time Source
KLCK Decoded METAR 2019/08/22 07:00 UTC NOAA

Station name not available
Aug 22, 2019 - 03:00 AM EDT / 2019.08.22 0700 UTC
Wind: Calm:0
Visibility: 10 mile(s):0
Sky conditions: clear
Temperature: 68 F (20 C)
Dew Point: 66 F (19 C)
Relative Humidity: 93%
Pressure (altimeter): 29.94 in. Hg (1013 hPa)
ob: KLCK 220700Z 00000KT 10SM CLR 20/19 A2994
cycle: 7

Station Type Date Time Source
KLCK TAF 2019/08/22 06:58 UTC NOAA

TAF KLCK 220546Z 2206/2306 26005KT P6SM BKN250
FM221300 24006KT P6SM VCTS BKN080CB
FM221600 24007KT P6SM VCTS BKN045CB
FM221800 27009KT 4SM -SHRA VCTS BKN035CB
FM222200 35007KT P6SM VCSH BKN045
FM230200 02007KT P6SM BKN060
AMD NOT SKED

Example: see airport list